sensor_id;sensor_type;location;lat;lon;timestamp;pressure;altitude;pressure_sealevel;temperature;humidity
58739;BME280;44512;53.046;18.604;2023-09-30T00:02:51;101639.28;;;21.93;54.72
58739;BME280;44512;53.046;18.604;2023-09-30T00:13:19;101652.16;;;21.88;54.75
58739;BME280;44512;53.046;18.604;2023-09-30T00:23:47;101660.35;;;21.82;55.00
58739;BME280;44512;53.046;18.604;2023-09-30T00:34:16;101637.63;;;21.75;55.40
58739;BME280;44512;53.046;18.604;2023-09-30T00:44:44;101630.98;;;21.71;55.53
58739;BME280;44512;53.046;18.604;2023-09-30T00:55:13;101637.55;;;21.70;55.64
58739;BME280;44512;53.046;18.604;2023-09-30T01:05:42;101632.30;;;21.69;55.64
58739;BME280;44512;53.046;18.604;2023-09-30T01:16:10;101629.81;;;21.67;55.76
58739;BME280;44512;53.046;18.604;2023-09-30T01:26:38;101631.96;;;21.65;55.61
58739;BME280;44512;53.046;18.604;2023-09-30T01:37:06;101639.16;;;21.66;55.21
58739;BME280;44512;53.046;18.604;2023-09-30T01:47:34;101629.47;;;21.64;54.96
58739;BME280;44512;53.046;18.604;2023-09-30T01:58:03;101647.43;;;21.66;54.74
58739;BME280;44512;53.046;18.604;2023-09-30T02:08:31;101645.17;;;21.63;54.62
58739;BME280;44512;53.046;18.604;2023-09-30T02:19:00;101658.03;;;21.57;55.15
58739;BME280;44512;53.046;18.604;2023-09-30T02:29:28;101645.84;;;21.53;55.50
58739;BME280;44512;53.046;18.604;2023-09-30T02:39:56;101643.83;;;21.49;55.79
58739;BME280;44512;53.046;18.604;2023-09-30T02:50:24;101646.59;;;21.49;55.98
58739;BME280;44512;53.046;18.604;2023-09-30T03:00:53;101645.49;;;21.50;56.10
58739;BME280;44512;53.046;18.604;2023-09-30T03:11:21;101646.02;;;21.47;56.20
58739;BME280;44512;53.046;18.604;2023-09-30T03:21:50;101652.02;;;21.44;56.37
58739;BME280;44512;53.046;18.604;2023-09-30T03:32:18;101676.23;;;21.42;56.60
58739;BME280;44512;53.046;18.604;2023-09-30T03:42:47;101679.73;;;21.37;57.00
58739;BME280;44512;53.046;18.604;2023-09-30T03:53:15;101689.18;;;21.29;57.79
58739;BME280;44512;53.046;18.604;2023-09-30T04:03:43;101705.55;;;21.19;58.64
58739;BME280;44512;53.046;18.604;2023-09-30T04:14:12;101724.38;;;21.11;59.40
58739;BME280;44512;53.046;18.604;2023-09-30T04:24:40;101730.04;;;21.04;60.38
58739;BME280;44512;53.046;18.604;2023-09-30T04:35:08;101753.01;;;20.98;60.53
58739;BME280;44512;53.046;18.604;2023-09-30T04:45:37;101770.03;;;20.95;61.22
58739;BME280;44512;53.046;18.604;2023-09-30T04:56:05;101778.08;;;20.85;61.82
58739;BME280;44512;53.046;18.604;2023-09-30T05:06:33;101819.13;;;20.74;61.44
58739;BME280;44512;53.046;18.604;2023-09-30T05:17:02;101837.44;;;20.69;61.05
58739;BME280;44512;53.046;18.604;2023-09-30T05:27:30;101859.80;;;20.61;60.51
58739;BME280;44512;53.046;18.604;2023-09-30T05:37:58;101894.48;;;20.50;60.06
58739;BME280;44512;53.046;18.604;2023-09-30T05:48:27;101910.69;;;20.40;59.46
58739;BME280;44512;53.046;18.604;2023-09-30T05:58:55;101922.05;;;20.32;58.83
58739;BME280;44512;53.046;18.604;2023-09-30T06:09:23;101926.93;;;20.29;58.17
58739;BME280;44512;53.046;18.604;2023-09-30T06:19:52;101941.39;;;20.25;57.54
58739;BME280;44512;53.046;18.604;2023-09-30T06:30:20;101960.74;;;20.18;56.70
58739;BME280;44512;53.046;18.604;2023-09-30T06:40:48;101972.05;;;20.10;56.26
58739;BME280;44512;53.046;18.604;2023-09-30T06:51:17;101982.17;;;19.98;55.93
58739;BME280;44512;53.046;18.604;2023-09-30T07:01:45;102009.05;;;19.96;54.80
58739;BME280;44512;53.046;18.604;2023-09-30T07:12:13;102031.48;;;19.93;54.09
58739;BME280;44512;53.046;18.604;2023-09-30T07:22:42;102031.80;;;19.85;53.14
58739;BME280;44512;53.046;18.604;2023-09-30T07:33:10;102029.38;;;19.76;52.13
58739;BME280;44512;53.046;18.604;2023-09-30T07:43:38;102052.03;;;19.72;51.56
58739;BME280;44512;53.046;18.604;2023-09-30T07:54:07;102072.11;;;19.72;50.91
58739;BME280;44512;53.046;18.604;2023-09-30T08:04:35;102076.21;;;19.63;50.01
58739;BME280;44512;53.046;18.604;2023-09-30T08:15:04;102105.87;;;19.55;49.28
58739;BME280;44512;53.046;18.604;2023-09-30T08:25:32;102099.73;;;19.34;49.12
58739;BME280;44512;53.046;18.604;2023-09-30T08:36:04;102088.23;;;19.44;48.90
58739;BME280;44512;53.046;18.604;2023-09-30T08:46:33;102104.23;;;19.47;48.45
58739;BME280;44512;53.046;18.604;2023-09-30T08:56:57;102165.88;;;19.51;48.42
58739;BME280;44512;53.046;18.604;2023-09-30T09:07:25;102173.05;;;19.52;48.27
58739;BME280;44512;53.046;18.604;2023-09-30T09:17:54;102154.47;;;19.54;47.85
58739;BME280;44512;53.046;18.604;2023-09-30T09:28:33;102165.82;;;19.58;47.50
58739;BME280;44512;53.046;18.604;2023-09-30T09:38:51;102189.30;;;19.60;47.21
58739;BME280;44512;53.046;18.604;2023-09-30T09:49:20;102181.93;;;19.54;47.06
58739;BME280;44512;53.046;18.604;2023-09-30T09:59:47;102192.64;;;19.62;47.03
58739;BME280;44512;53.046;18.604;2023-09-30T10:10:17;102191.53;;;19.70;46.46
58739;BME280;44512;53.046;18.604;2023-09-30T10:20:44;102212.20;;;19.72;45.96
58739;BME280;44512;53.046;18.604;2023-09-30T10:31:19;102192.37;;;19.70;45.87
58739;BME280;44512;53.046;18.604;2023-09-30T10:41:49;102204.73;;;19.80;45.76
58739;BME280;44512;53.046;18.604;2023-09-30T10:57:27;102208.27;;;19.87;45.15
58739;BME280;44512;53.046;18.604;2023-09-30T11:07:48;102217.27;;;19.94;45.43
58739;BME280;44512;53.046;18.604;2023-09-30T11:18:17;102225.15;;;19.90;44.56
58739;BME280;44512;53.046;18.604;2023-09-30T11:28:44;102230.41;;;19.92;43.59
58739;BME280;44512;53.046;18.604;2023-09-30T11:49:43;102229.22;;;20.06;42.62
58739;BME280;44512;53.046;18.604;2023-09-30T12:00:09;102215.48;;;20.06;42.81
58739;BME280;44512;53.046;18.604;2023-09-30T12:10:37;102228.14;;;20.07;42.40
58739;BME280;44512;53.046;18.604;2023-09-30T12:21:05;102237.23;;;20.08;43.00
58739;BME280;44512;53.046;18.604;2023-09-30T12:31:34;102233.17;;;20.10;43.40
58739;BME280;44512;53.046;18.604;2023-09-30T12:42:02;102231.49;;;20.09;43.29
58739;BME280;44512;53.046;18.604;2023-09-30T12:52:30;102239.74;;;20.09;43.16
58739;BME280;44512;53.046;18.604;2023-09-30T13:03:00;102231.49;;;20.09;42.70
58739;BME280;44512;53.046;18.604;2023-09-30T13:13:29;102236.31;;;20.14;42.69
58739;BME280;44512;53.046;18.604;2023-09-30T13:23:55;102227.11;;;20.26;42.49
58739;BME280;44512;53.046;18.604;2023-09-30T13:34:24;102228.54;;;20.29;41.93
58739;BME280;44512;53.046;18.604;2023-09-30T13:44:52;102228.60;;;20.41;41.35
58739;BME280;44512;53.046;18.604;2023-09-30T13:55:20;102229.48;;;20.60;40.89
58739;BME280;44512;53.046;18.604;2023-09-30T14:05:49;102222.59;;;20.69;40.38
58739;BME280;44512;53.046;18.604;2023-09-30T14:16:17;102224.17;;;20.76;40.32
58739;BME280;44512;53.046;18.604;2023-09-30T14:26:46;102219.58;;;20.89;39.80
58739;BME280;44512;53.046;18.604;2023-09-30T14:37:14;102217.45;;;21.02;39.72
58739;BME280;44512;53.046;18.604;2023-09-30T14:47:42;102231.62;;;21.18;39.49
58739;BME280;44512;53.046;18.604;2023-09-30T14:58:11;102242.38;;;21.38;39.41
58739;BME280;44512;53.046;18.604;2023-09-30T15:08:39;102234.41;;;21.29;39.47
58739;BME280;44512;53.046;18.604;2023-09-30T15:19:07;102239.81;;;21.66;38.96
58739;BME280;44512;53.046;18.604;2023-09-30T15:29:36;102248.13;;;21.36;39.57
58739;BME280;44512;53.046;18.604;2023-09-30T15:40:05;102257.04;;;21.20;39.90
58739;BME280;44512;53.046;18.604;2023-09-30T15:50:32;102271.13;;;21.12;40.11
58739;BME280;44512;53.046;18.604;2023-09-30T16:01:01;102270.00;;;21.01;40.31
58739;BME280;44512;53.046;18.604;2023-09-30T16:11:29;102279.59;;;20.80;40.40
58739;BME280;44512;53.046;18.604;2023-09-30T16:21:57;102296.33;;;20.60;40.53
58739;BME280;44512;53.046;18.604;2023-09-30T16:32:26;102300.74;;;20.43;40.48
58739;BME280;44512;53.046;18.604;2023-09-30T16:42:54;102305.13;;;20.25;40.49
58739;BME280;44512;53.046;18.604;2023-09-30T16:53:22;102322.20;;;20.09;40.67
58739;BME280;44512;53.046;18.604;2023-09-30T17:03:51;102316.37;;;19.99;40.94
58739;BME280;44512;53.046;18.604;2023-09-30T17:14:19;102317.54;;;19.85;41.37
58739;BME280;44512;53.046;18.604;2023-09-30T17:24:47;102311.09;;;19.72;41.81
58739;BME280;44512;53.046;18.604;2023-09-30T17:35:16;102302.73;;;19.61;42.30
58739;BME280;44512;53.046;18.604;2023-09-30T17:45:44;102309.75;;;19.50;42.71
58739;BME280;44512;53.046;18.604;2023-09-30T17:56:17;102316.98;;;19.38;43.10
58739;BME280;44512;53.046;18.604;2023-09-30T18:06:41;102335.47;;;19.24;43.52
58739;BME280;44512;53.046;18.604;2023-09-30T18:17:09;102345.88;;;19.09;43.73
58739;BME280;44512;53.046;18.604;2023-09-30T18:27:38;102330.94;;;18.91;44.06
58739;BME280;44512;53.046;18.604;2023-09-30T18:38:06;102349.15;;;18.79;44.29
58739;BME280;44512;53.046;18.604;2023-09-30T18:48:34;102360.98;;;18.66;44.64
58739;BME280;44512;53.046;18.604;2023-09-30T18:59:03;102355.51;;;18.53;44.97
58739;BME280;44512;53.046;18.604;2023-09-30T19:09:31;102360.16;;;18.39;45.55
58739;BME280;44512;53.046;18.604;2023-09-30T19:19:59;102361.46;;;18.30;46.00
58739;BME280;44512;53.046;18.604;2023-09-30T19:30:28;102366.71;;;18.18;46.45
58739;BME280;44512;53.046;18.604;2023-09-30T19:40:56;102361.87;;;18.07;46.89
58739;BME280;44512;53.046;18.604;2023-09-30T19:51:24;102356.80;;;17.98;47.31
58739;BME280;44512;53.046;18.604;2023-09-30T20:01:53;102363.13;;;17.85;47.71
58739;BME280;44512;53.046;18.604;2023-09-30T20:12:21;102381.20;;;17.73;48.12
58739;BME280;44512;53.046;18.604;2023-09-30T20:22:49;102376.52;;;17.60;48.78
58739;BME280;44512;53.046;18.604;2023-09-30T20:33:18;102384.52;;;17.48;49.01
58739;BME280;44512;53.046;18.604;2023-09-30T20:43:46;102380.26;;;17.39;49.41
58739;BME280;44512;53.046;18.604;2023-09-30T20:54:14;102384.44;;;17.28;49.84
58739;BME280;44512;53.046;18.604;2023-09-30T21:04:43;102370.51;;;17.16;50.19
58739;BME280;44512;53.046;18.604;2023-09-30T21:15:11;102376.35;;;17.07;50.63
58739;BME280;44512;53.046;18.604;2023-09-30T21:25:40;102375.43;;;16.93;51.02
58739;BME280;44512;53.046;18.604;2023-09-30T21:36:08;102367.36;;;16.78;51.47
58739;BME280;44512;53.046;18.604;2023-09-30T21:46:36;102373.57;;;16.65;51.88
58739;BME280;44512;53.046;18.604;2023-09-30T21:57:04;102380.38;;;16.48;52.21
58739;BME280;44512;53.046;18.604;2023-09-30T22:07:33;102387.45;;;16.36;52.60
58739;BME280;44512;53.046;18.604;2023-09-30T22:18:01;102379.12;;;16.23;52.97
58739;BME280;44512;53.046;18.604;2023-09-30T22:28:29;102364.79;;;16.14;53.37
58739;BME280;44512;53.046;18.604;2023-09-30T22:38:58;102372.90;;;16.07;53.75
58739;BME280;44512;53.046;18.604;2023-09-30T22:49:26;102370.58;;;16.04;54.06
58739;BME280;44512;53.046;18.604;2023-09-30T22:59:54;102360.95;;;16.08;54.16
58739;BME280;44512;53.046;18.604;2023-09-30T23:10:23;102372.27;;;16.05;54.26
58739;BME280;44512;53.046;18.604;2023-09-30T23:20:51;102369.74;;;16.04;54.39
58739;BME280;44512;53.046;18.604;2023-09-30T23:31:19;102359.20;;;16.01;54.57
58739;BME280;44512;53.046;18.604;2023-09-30T23:41:48;102358.69;;;15.91;54.69
58739;BME280;44512;53.046;18.604;2023-09-30T23:52:16;102348.09;;;15.81;54.87
